sensor_id;sensor_type;location;lat;lon;timestamp;pressure;altitude;pressure_sealevel;temperature;humidity
42601;BME280;28229;48.856;9.088;2023-12-04T00:02:03;98078.56;;;-5.14;95.08
42601;BME280;28229;48.856;9.088;2023-12-04T00:04:29;98077.25;;;-5.20;94.92
42601;BME280;28229;48.856;9.088;2023-12-04T00:06:55;98067.47;;;-5.26;95.25
42601;BME280;28229;48.856;9.088;2023-12-04T00:09:21;98059.25;;;-5.42;95.96
42601;BME280;28229;48.856;9.088;2023-12-04T00:11:50;98056.09;;;-5.46;95.97
42601;BME280;28229;48.856;9.088;2023-12-04T00:14:16;98050.25;;;-5.59;96.68
42601;BME280;28229;48.856;9.088;2023-12-04T00:16:42;98051.41;;;-5.63;97.31
42601;BME280;28229;48.856;9.088;2023-12-04T00:19:09;98043.72;;;-5.63;97.30
42601;BME280;28229;48.856;9.088;2023-12-04T00:21:35;98037.97;;;-5.78;98.13
42601;BME280;28229;48.856;9.088;2023-12-04T00:24:01;98038.22;;;-5.70;98.25
42601;BME280;28229;48.856;9.088;2023-12-04T00:26:27;98039.25;;;-5.72;97.93
42601;BME280;28229;48.856;9.088;2023-12-04T00:28:53;98035.78;;;-5.71;97.93
42601;BME280;28229;48.856;9.088;2023-12-04T00:31:20;98027.38;;;-5.74;98.33
42601;BME280;28229;48.856;9.088;2023-12-04T00:33:46;98030.19;;;-5.65;97.95
42601;BME280;28229;48.856;9.088;2023-12-04T00:36:14;98030.88;;;-5.75;98.67
42601;BME280;28229;48.856;9.088;2023-12-04T00:38:40;98023.19;;;-5.63;97.99
42601;BME280;28229;48.856;9.088;2023-12-04T00:41:06;98025.53;;;-5.71;97.99
42601;BME280;28229;48.856;9.088;2023-12-04T00:43:32;98024.84;;;-5.62;98.11
42601;BME280;28229;48.856;9.088;2023-12-04T00:45:58;98016.09;;;-5.60;97.76
42601;BME280;28229;48.856;9.088;2023-12-04T00:48:24;98008.88;;;-5.66;98.41
42601;BME280;28229;48.856;9.088;2023-12-04T00:50:51;98009.25;;;-5.59;98.25
42601;BME280;28229;48.856;9.088;2023-12-04T00:53:17;98010.16;;;-5.60;98.29
42601;BME280;28229;48.856;9.088;2023-12-04T00:55:44;98003.06;;;-5.57;98.36
42601;BME280;28229;48.856;9.088;2023-12-04T00:58:10;98005.88;;;-5.48;98.13
42601;BME280;28229;48.856;9.088;2023-12-04T01:00:36;97999.22;;;-5.62;98.71
42601;BME280;28229;48.856;9.088;2023-12-04T01:03:02;98010.88;;;-5.58;98.52
42601;BME280;28229;48.856;9.088;2023-12-04T01:05:28;98004.56;;;-5.65;98.73
42601;BME280;28229;48.856;9.088;2023-12-04T01:07:57;97997.56;;;-5.63;98.78
42601;BME280;28229;48.856;9.088;2023-12-04T01:10:23;97998.16;;;-5.60;99.01
42601;BME280;28229;48.856;9.088;2023-12-04T01:12:49;98005.63;;;-5.68;99.09
42601;BME280;28229;48.856;9.088;2023-12-04T01:15:15;97997.06;;;-5.80;99.54
42601;BME280;28229;48.856;9.088;2023-12-04T01:17:41;98001.38;;;-5.80;99.81
42601;BME280;28229;48.856;9.088;2023-12-04T01:20:09;98000.34;;;-5.78;99.38
42601;BME280;28229;48.856;9.088;2023-12-04T01:22:35;97997.66;;;-5.76;99.45
42601;BME280;28229;48.856;9.088;2023-12-04T01:25:01;97991.72;;;-5.77;99.26
42601;BME280;28229;48.856;9.088;2023-12-04T01:27:29;97992.91;;;-5.69;98.99
42601;BME280;28229;48.856;9.088;2023-12-04T01:29:55;97981.00;;;-5.70;99.15
42601;BME280;28229;48.856;9.088;2023-12-04T01:32:21;97978.91;;;-5.77;99.23
42601;BME280;28229;48.856;9.088;2023-12-04T01:34:47;97974.97;;;-5.69;98.89
42601;BME280;28229;48.856;9.088;2023-12-04T01:37:13;97980.09;;;-5.69;99.14
42601;BME280;28229;48.856;9.088;2023-12-04T01:39:39;97970.09;;;-5.61;98.79
42601;BME280;28229;48.856;9.088;2023-12-04T01:42:06;97968.59;;;-5.52;98.83
42601;BME280;28229;48.856;9.088;2023-12-04T01:44:32;97973.59;;;-5.51;98.65
42601;BME280;28229;48.856;9.088;2023-12-04T01:46:58;97972.44;;;-5.47;97.83
42601;BME280;28229;48.856;9.088;2023-12-04T01:49:24;97977.53;;;-5.58;97.68
42601;BME280;28229;48.856;9.088;2023-12-04T01:51:50;97973.94;;;-5.56;97.64
42601;BME280;28229;48.856;9.088;2023-12-04T01:54:17;97971.72;;;-5.60;98.03
42601;BME280;28229;48.856;9.088;2023-12-04T01:56:43;97970.59;;;-5.56;98.05
42601;BME280;28229;48.856;9.088;2023-12-04T01:59:10;97964.28;;;-5.52;97.90
42601;BME280;28229;48.856;9.088;2023-12-04T02:01:36;97965.94;;;-5.40;97.52
42601;BME280;28229;48.856;9.088;2023-12-04T02:04:03;97957.97;;;-5.37;96.87
42601;BME280;28229;48.856;9.088;2023-12-04T02:06:30;97945.41;;;-5.28;96.68
42601;BME280;28229;48.856;9.088;2023-12-04T02:08:56;97943.31;;;-5.23;96.60
42601;BME280;28229;48.856;9.088;2023-12-04T02:11:22;97946.78;;;-5.24;96.43
42601;BME280;28229;48.856;9.088;2023-12-04T02:13:48;97955.22;;;-5.22;96.12
42601;BME280;28229;48.856;9.088;2023-12-04T02:16:16;97951.81;;;-5.23;96.04
42601;BME280;28229;48.856;9.088;2023-12-04T02:18:43;97949.25;;;-5.23;95.99
42601;BME280;28229;48.856;9.088;2023-12-04T02:21:09;97938.19;;;-5.23;96.12
42601;BME280;28229;48.856;9.088;2023-12-04T02:23:35;97938.88;;;-5.21;95.57
42601;BME280;28229;48.856;9.088;2023-12-04T02:26:08;97944.47;;;-5.39;96.11
42601;BME280;28229;48.856;9.088;2023-12-04T02:28:36;97933.28;;;-5.26;95.54
42601;BME280;28229;48.856;9.088;2023-12-04T02:31:06;97934.56;;;-5.21;95.38
42601;BME280;28229;48.856;9.088;2023-12-04T02:33:34;97936.31;;;-5.21;94.93
42601;BME280;28229;48.856;9.088;2023-12-04T02:36:02;97941.66;;;-5.24;94.71
42601;BME280;28229;48.856;9.088;2023-12-04T02:38:30;97947.03;;;-5.39;94.92
42601;BME280;28229;48.856;9.088;2023-12-04T02:40:56;97939.34;;;-5.50;95.55
42601;BME280;28229;48.856;9.088;2023-12-04T02:43:22;97935.03;;;-5.49;95.44
42601;BME280;28229;48.856;9.088;2023-12-04T02:45:48;97934.69;;;-5.45;95.31
42601;BME280;28229;48.856;9.088;2023-12-04T02:48:14;97929.78;;;-5.48;94.55
42601;BME280;28229;48.856;9.088;2023-12-04T02:50:40;97927.69;;;-5.54;95.40
42601;BME280;28229;48.856;9.088;2023-12-04T02:53:07;97926.88;;;-5.66;95.51
42601;BME280;28229;48.856;9.088;2023-12-04T02:55:33;97913.56;;;-5.60;95.04
42601;BME280;28229;48.856;9.088;2023-12-04T02:57:59;97915.47;;;-5.50;95.07
42601;BME280;28229;48.856;9.088;2023-12-04T03:00:25;97904.06;;;-5.58;94.79
42601;BME280;28229;48.856;9.088;2023-12-04T03:02:52;97894.34;;;-5.65;95.20
42601;BME280;28229;48.856;9.088;2023-12-04T03:05:19;97890.16;;;-5.78;95.46
42601;BME280;28229;48.856;9.088;2023-12-04T03:07:45;97883.63;;;-5.70;94.83
42601;BME280;28229;48.856;9.088;2023-12-04T03:10:11;97876.78;;;-5.70;95.09
42601;BME280;28229;48.856;9.088;2023-12-04T03:12:37;97876.19;;;-5.74;95.33
42601;BME280;28229;48.856;9.088;2023-12-04T03:15:04;97878.28;;;-5.79;94.93
42601;BME280;28229;48.856;9.088;2023-12-04T03:17:31;97873.50;;;-5.83;94.97
42601;BME280;28229;48.856;9.088;2023-12-04T03:19:57;97876.88;;;-5.94;95.47
42601;BME280;28229;48.856;9.088;2023-12-04T03:22:24;97865.81;;;-5.83;95.78
42601;BME280;28229;48.856;9.088;2023-12-04T03:24:50;97863.97;;;-5.70;95.23
42601;BME280;28229;48.856;9.088;2023-12-04T03:27:16;97857.09;;;-5.69;95.08
42601;BME280;28229;48.856;9.088;2023-12-04T03:29:42;97851.38;;;-5.62;94.78
42601;BME280;28229;48.856;9.088;2023-12-04T03:32:08;97847.19;;;-5.63;94.46
42601;BME280;28229;48.856;9.088;2023-12-04T03:34:34;97841.00;;;-5.60;94.17
42601;BME280;28229;48.856;9.088;2023-12-04T03:37:00;97842.84;;;-5.51;94.25
42601;BME280;28229;48.856;9.088;2023-12-04T03:39:26;97832.59;;;-5.51;94.41
42601;BME280;28229;48.856;9.088;2023-12-04T03:41:53;97821.53;;;-5.51;94.39
42601;BME280;28229;48.856;9.088;2023-12-04T03:44:19;97818.38;;;-5.44;94.42
42601;BME280;28229;48.856;9.088;2023-12-04T03:46:45;97815.47;;;-5.39;94.45
42601;BME280;28229;48.856;9.088;2023-12-04T03:49:11;97806.13;;;-5.40;94.55
42601;BME280;28229;48.856;9.088;2023-12-04T03:51:37;97803.09;;;-5.34;94.46
42601;BME280;28229;48.856;9.088;2023-12-04T03:54:03;97803.56;;;-5.29;94.56
42601;BME280;28229;48.856;9.088;2023-12-04T03:56:30;97798.56;;;-5.30;94.88
42601;BME280;28229;48.856;9.088;2023-12-04T03:58:56;97806.97;;;-5.40;94.65
42601;BME280;28229;48.856;9.088;2023-12-04T04:01:22;97807.44;;;-5.34;93.95
42601;BME280;28229;48.856;9.088;2023-12-04T04:03:50;97810.00;;;-5.34;93.78
42601;BME280;28229;48.856;9.088;2023-12-04T04:06:16;97804.41;;;-5.40;93.80
42601;BME280;28229;48.856;9.088;2023-12-04T04:08:42;97814.41;;;-5.37;93.69
42601;BME280;28229;48.856;9.088;2023-12-04T04:11:09;97808.34;;;-5.36;93.55
42601;BME280;28229;48.856;9.088;2023-12-04T04:13:35;97819.41;;;-5.35;93.99
42601;BME280;28229;48.856;9.088;2023-12-04T04:16:01;97806.47;;;-5.33;93.89
42601;BME280;28229;48.856;9.088;2023-12-04T04:18:27;97805.78;;;-5.36;94.02
42601;BME280;28229;48.856;9.088;2023-12-04T04:20:53;97801.56;;;-5.25;94.34
42601;BME280;28229;48.856;9.088;2023-12-04T04:23:19;97801.81;;;-5.28;94.35
42601;BME280;28229;48.856;9.088;2023-12-04T04:25:45;97801.56;;;-5.37;95.09
42601;BME280;28229;48.856;9.088;2023-12-04T04:28:11;97799.75;;;-5.46;95.55
42601;BME280;28229;48.856;9.088;2023-12-04T04:30:38;97796.13;;;-5.55;96.34
42601;BME280;28229;48.856;9.088;2023-12-04T04:33:04;97801.41;;;-5.67;97.17
42601;BME280;28229;48.856;9.088;2023-12-04T04:35:30;97805.38;;;-5.75;97.52
42601;BME280;28229;48.856;9.088;2023-12-04T04:37:57;97799.31;;;-5.74;97.76
42601;BME280;28229;48.856;9.088;2023-12-04T04:40:23;97795.59;;;-5.69;97.29
42601;BME280;28229;48.856;9.088;2023-12-04T04:42:49;97793.81;;;-5.69;97.20
42601;BME280;28229;48.856;9.088;2023-12-04T04:45:16;97790.47;;;-5.69;97.06
42601;BME280;28229;48.856;9.088;2023-12-04T04:47:42;97795.69;;;-5.71;97.24
42601;BME280;28229;48.856;9.088;2023-12-04T04:50:08;97798.94;;;-5.69;97.36
42601;BME280;28229;48.856;9.088;2023-12-04T04:52:34;97792.22;;;-5.70;97.18
42601;BME280;28229;48.856;9.088;2023-12-04T04:55:00;97789.78;;;-5.71;97.50
42601;BME280;28229;48.856;9.088;2023-12-04T04:57:26;97775.31;;;-5.61;97.41
42601;BME280;28229;48.856;9.088;2023-12-04T04:59:52;97783.78;;;-5.49;96.84
42601;BME280;28229;48.856;9.088;2023-12-04T05:02:18;97779.72;;;-5.52;96.67
42601;BME280;28229;48.856;9.088;2023-12-04T05:04:44;97770.38;;;-5.42;96.16
42601;BME280;28229;48.856;9.088;2023-12-04T05:07:11;97765.50;;;-5.45;96.02
42601;BME280;28229;48.856;9.088;2023-12-04T05:09:37;97763.97;;;-5.36;95.92
42601;BME280;28229;48.856;9.088;2023-12-04T05:12:03;97761.75;;;-5.41;96.16
42601;BME280;28229;48.856;9.088;2023-12-04T05:14:29;97755.31;;;-5.35;96.08
42601;BME280;28229;48.856;9.088;2023-12-04T05:16:55;97753.59;;;-5.46;95.99
42601;BME280;28229;48.856;9.088;2023-12-04T05:19:21;97745.06;;;-5.35;95.81
42601;BME280;28229;48.856;9.088;2023-12-04T05:21:47;97739.53;;;-5.19;96.59
42601;BME280;28229;48.856;9.088;2023-12-04T05:24:14;97745.78;;;-5.12;96.48
42601;BME280;28229;48.856;9.088;2023-12-04T05:26:40;97738.53;;;-5.07;96.21
42601;BME280;28229;48.856;9.088;2023-12-04T05:29:06;97728.97;;;-5.05;96.16
42601;BME280;28229;48.856;9.088;2023-12-04T05:31:32;97726.53;;;-5.06;95.77
42601;BME280;28229;48.856;9.088;2023-12-04T05:33:58;97722.47;;;-5.09;95.51
42601;BME280;28229;48.856;9.088;2023-12-04T05:36:26;97721.03;;;-5.02;94.81
42601;BME280;28229;48.856;9.088;2023-12-04T05:38:52;97729.41;;;-5.00;94.50
42601;BME280;28229;48.856;9.088;2023-12-04T05:41:19;97728.66;;;-4.90;94.15
42601;BME280;28229;48.856;9.088;2023-12-04T05:43:45;97733.63;;;-4.99;94.25
42601;BME280;28229;48.856;9.088;2023-12-04T05:46:11;97728.22;;;-4.95;93.70
42601;BME280;28229;48.856;9.088;2023-12-04T05:48:38;97725.41;;;-4.92;93.71
42601;BME280;28229;48.856;9.088;2023-12-04T05:51:04;97721.91;;;-4.91;93.63
42601;BME280;28229;48.856;9.088;2023-12-04T05:53:30;97719.78;;;-4.86;93.37
42601;BME280;28229;48.856;9.088;2023-12-04T05:55:56;97719.53;;;-4.83;93.32
42601;BME280;28229;48.856;9.088;2023-12-04T05:58:22;97722.09;;;-4.83;93.25
42601;BME280;28229;48.856;9.088;2023-12-04T06:00:48;97721.13;;;-4.92;93.56
42601;BME280;28229;48.856;9.088;2023-12-04T06:03:14;97708.56;;;-4.85;93.21
42601;BME280;28229;48.856;9.088;2023-12-04T06:05:41;97712.78;;;-4.84;93.08
42601;BME280;28229;48.856;9.088;2023-12-04T06:08:07;97720.59;;;-4.86;92.90
42601;BME280;28229;48.856;9.088;2023-12-04T06:10:33;97724.03;;;-4.97;93.35
42601;BME280;28229;48.856;9.088;2023-12-04T06:13:01;97723.81;;;-4.93;93.38
42601;BME280;28229;48.856;9.088;2023-12-04T06:15:27;97733.09;;;-4.92;93.50
42601;BME280;28229;48.856;9.088;2023-12-04T06:17:53;97737.97;;;-5.10;94.54
42601;BME280;28229;48.856;9.088;2023-12-04T06:20:20;97729.59;;;-5.12;94.26
42601;BME280;28229;48.856;9.088;2023-12-04T06:22:46;97730.09;;;-5.19;94.11
42601;BME280;28229;48.856;9.088;2023-12-04T06:25:16;97726.66;;;-5.08;94.05
42601;BME280;28229;48.856;9.088;2023-12-04T06:27:42;97723.16;;;-5.07;93.87
42601;BME280;28229;48.856;9.088;2023-12-04T06:30:09;97712.41;;;-5.01;94.72
42601;BME280;28229;48.856;9.088;2023-12-04T06:32:36;97717.94;;;-4.95;95.22
42601;BME280;28229;48.856;9.088;2023-12-04T06:35:03;97722.72;;;-4.91;95.15
42601;BME280;28229;48.856;9.088;2023-12-04T06:37:30;97718.03;;;-4.86;94.74
42601;BME280;28229;48.856;9.088;2023-12-04T06:39:59;97701.72;;;-4.85;94.97
42601;BME280;28229;48.856;9.088;2023-12-04T06:42:29;97703.97;;;-4.70;96.35
42601;BME280;28229;48.856;9.088;2023-12-04T06:44:55;97701.00;;;-4.66;94.83
42601;BME280;28229;48.856;9.088;2023-12-04T06:47:23;97701.25;;;-4.69;94.24
42601;BME280;28229;48.856;9.088;2023-12-04T06:49:49;97708.25;;;-4.71;94.06
42601;BME280;28229;48.856;9.088;2023-12-04T06:52:16;97708.22;;;-4.19;100.00
42601;BME280;28229;48.856;9.088;2023-12-04T06:54:42;97712.69;;;-3.80;100.00
42601;BME280;28229;48.856;9.088;2023-12-04T06:57:08;97710.38;;;-3.84;100.00
42601;BME280;28229;48.856;9.088;2023-12-04T06:59:37;97695.94;;;-3.65;100.00
42601;BME280;28229;48.856;9.088;2023-12-04T07:02:03;97702.19;;;-3.38;100.00
42601;BME280;28229;48.856;9.088;2023-12-04T07:04:31;97686.34;;;-3.43;100.00
42601;BME280;28229;48.856;9.088;2023-12-04T07:06:57;97677.00;;;-3.64;100.00
42601;BME280;28229;48.856;9.088;2023-12-04T07:09:26;97681.28;;;-3.74;100.00
42601;BME280;28229;48.856;9.088;2023-12-04T07:11:53;97679.09;;;-3.89;100.00
42601;BME280;28229;48.856;9.088;2023-12-04T07:14:20;97677.06;;;-3.95;97.63
42601;BME280;28229;48.856;9.088;2023-12-04T07:16:46;97674.50;;;-3.95;95.82
42601;BME280;28229;48.856;9.088;2023-12-04T07:19:12;97669.06;;;-4.11;94.04
42601;BME280;28229;48.856;9.088;2023-12-04T07:21:40;97673.53;;;-4.13;93.27
42601;BME280;28229;48.856;9.088;2023-12-04T07:24:07;97666.31;;;-4.19;92.46
42601;BME280;28229;48.856;9.088;2023-12-04T07:26:34;97663.31;;;-4.25;92.91
42601;BME280;28229;48.856;9.088;2023-12-04T07:29:01;97655.63;;;-4.25;92.45
42601;BME280;28229;48.856;9.088;2023-12-04T07:31:28;97646.38;;;-4.37;91.93
42601;BME280;28229;48.856;9.088;2023-12-04T07:33:55;97660.19;;;-4.38;91.87
42601;BME280;28229;48.856;9.088;2023-12-04T07:36:22;97660.31;;;-4.40;92.27
42601;BME280;28229;48.856;9.088;2023-12-04T07:38:48;97656.53;;;-4.35;92.41
42601;BME280;28229;48.856;9.088;2023-12-04T07:41:15;97658.31;;;-4.36;92.33
42601;BME280;28229;48.856;9.088;2023-12-04T07:43:41;97647.34;;;-4.38;92.92
42601;BME280;28229;48.856;9.088;2023-12-04T07:46:09;97647.22;;;-4.36;92.79
42601;BME280;28229;48.856;9.088;2023-12-04T07:48:35;97642.75;;;-4.34;93.62
42601;BME280;28229;48.856;9.088;2023-12-04T07:51:01;97643.56;;;-4.34;93.76
42601;BME280;28229;48.856;9.088;2023-12-04T07:53:27;97651.69;;;-4.29;94.03
42601;BME280;28229;48.856;9.088;2023-12-04T07:55:54;97646.31;;;-4.26;93.99
42601;BME280;28229;48.856;9.088;2023-12-04T07:58:20;97643.81;;;-4.37;93.42
42601;BME280;28229;48.856;9.088;2023-12-04T08:00:47;97642.47;;;-4.41;92.60
42601;BME280;28229;48.856;9.088;2023-12-04T08:03:13;97644.66;;;-4.36;93.05
42601;BME280;28229;48.856;9.088;2023-12-04T08:05:39;97638.97;;;-4.40;93.33
42601;BME280;28229;48.856;9.088;2023-12-04T08:08:06;97633.28;;;-4.34;93.30
42601;BME280;28229;48.856;9.088;2023-12-04T08:10:32;97646.38;;;-4.37;93.00
42601;BME280;28229;48.856;9.088;2023-12-04T08:12:58;97643.03;;;-4.37;93.30
42601;BME280;28229;48.856;9.088;2023-12-04T08:15:25;97634.09;;;-4.43;92.78
42601;BME280;28229;48.856;9.088;2023-12-04T08:17:51;97633.00;;;-4.41;92.61
42601;BME280;28229;48.856;9.088;2023-12-04T08:20:17;97619.53;;;-4.33;93.59
42601;BME280;28229;48.856;9.088;2023-12-04T08:22:48;97629.25;;;-4.27;93.03
42601;BME280;28229;48.856;9.088;2023-12-04T08:25:14;97639.03;;;-4.21;92.97
42601;BME280;28229;48.856;9.088;2023-12-04T08:27:43;97637.56;;;-4.13;91.97
42601;BME280;28229;48.856;9.088;2023-12-04T08:30:09;97623.88;;;-4.14;91.72
42601;BME280;28229;48.856;9.088;2023-12-04T08:32:35;97609.31;;;-4.13;91.16
42601;BME280;28229;48.856;9.088;2023-12-04T08:35:01;97606.59;;;-4.02;92.23
42601;BME280;28229;48.856;9.088;2023-12-04T08:37:28;97605.94;;;-3.94;92.94
42601;BME280;28229;48.856;9.088;2023-12-04T08:39:54;97617.97;;;-3.85;92.58
42601;BME280;28229;48.856;9.088;2023-12-04T08:42:20;97614.19;;;-3.91;91.08
42601;BME280;28229;48.856;9.088;2023-12-04T08:44:46;97614.59;;;-3.95;90.16
42601;BME280;28229;48.856;9.088;2023-12-04T08:47:13;97622.84;;;-3.92;90.44
42601;BME280;28229;48.856;9.088;2023-12-04T08:49:40;97605.41;;;-3.78;90.86
42601;BME280;28229;48.856;9.088;2023-12-04T08:52:07;97601.22;;;-3.70;91.40
42601;BME280;28229;48.856;9.088;2023-12-04T08:54:33;97590.13;;;-3.70;89.95
42601;BME280;28229;48.856;9.088;2023-12-04T08:57:00;97580.38;;;-3.57;90.12
42601;BME280;28229;48.856;9.088;2023-12-04T08:59:26;97589.44;;;-3.53;90.09
42601;BME280;28229;48.856;9.088;2023-12-04T09:01:54;97596.09;;;-3.60;88.94
42601;BME280;28229;48.856;9.088;2023-12-04T09:04:21;97605.53;;;-3.60;89.25
42601;BME280;28229;48.856;9.088;2023-12-04T09:06:47;97608.94;;;-3.60;90.13
42601;BME280;28229;48.856;9.088;2023-12-04T09:09:13;97598.50;;;-3.58;89.66
42601;BME280;28229;48.856;9.088;2023-12-04T09:11:42;97592.00;;;-3.63;89.73
42601;BME280;28229;48.856;9.088;2023-12-04T09:14:11;97590.38;;;-3.54;90.17
42601;BME280;28229;48.856;9.088;2023-12-04T09:16:39;97588.88;;;-3.47;90.03
42601;BME280;28229;48.856;9.088;2023-12-04T09:19:05;97604.88;;;-3.53;89.99
42601;BME280;28229;48.856;9.088;2023-12-04T09:21:32;97598.78;;;-3.52;89.99
42601;BME280;28229;48.856;9.088;2023-12-04T09:23:58;97601.59;;;-3.55;90.12
42601;BME280;28229;48.856;9.088;2023-12-04T09:26:24;97594.84;;;-3.56;90.08
42601;BME280;28229;48.856;9.088;2023-12-04T09:28:50;97592.28;;;-3.56;90.50
42601;BME280;28229;48.856;9.088;2023-12-04T09:31:16;97597.00;;;-3.41;90.12
42601;BME280;28229;48.856;9.088;2023-12-04T09:33:44;97589.00;;;-3.29;90.14
42601;BME280;28229;48.856;9.088;2023-12-04T09:36:10;97591.84;;;-3.22;89.84
42601;BME280;28229;48.856;9.088;2023-12-04T09:38:36;97588.69;;;-3.16;89.62
42601;BME280;28229;48.856;9.088;2023-12-04T09:41:03;97587.91;;;-3.16;89.30
42601;BME280;28229;48.856;9.088;2023-12-04T09:43:31;97589.75;;;-3.09;89.13
42601;BME280;28229;48.856;9.088;2023-12-04T09:45:58;97588.25;;;-3.01;89.34
42601;BME280;28229;48.856;9.088;2023-12-04T09:48:26;97594.38;;;-3.02;89.07
42601;BME280;28229;48.856;9.088;2023-12-04T09:50:52;97599.94;;;-3.07;89.47
42601;BME280;28229;48.856;9.088;2023-12-04T09:53:19;97595.31;;;-3.03;89.33
42601;BME280;28229;48.856;9.088;2023-12-04T09:55:49;97577.56;;;-2.97;90.12
42601;BME280;28229;48.856;9.088;2023-12-04T09:58:15;97573.72;;;-2.83;90.60
42601;BME280;28229;48.856;9.088;2023-12-04T10:00:46;97561.34;;;-2.42;100.00
42601;BME280;28229;48.856;9.088;2023-12-04T10:03:12;97586.75;;;-2.57;92.76
42601;BME280;28229;48.856;9.088;2023-12-04T10:05:44;97578.53;;;-2.70;89.90
42601;BME280;28229;48.856;9.088;2023-12-04T10:08:14;97560.66;;;-2.72;89.88
42601;BME280;28229;48.856;9.088;2023-12-04T10:10:40;97563.28;;;-2.81;90.13
42601;BME280;28229;48.856;9.088;2023-12-04T10:13:06;97569.88;;;-2.69;89.95
42601;BME280;28229;48.856;9.088;2023-12-04T10:15:32;97559.00;;;-2.63;89.95
42601;BME280;28229;48.856;9.088;2023-12-04T10:17:59;97563.09;;;-2.70;89.86
42601;BME280;28229;48.856;9.088;2023-12-04T10:20:25;97565.69;;;-2.80;89.89
42601;BME280;28229;48.856;9.088;2023-12-04T10:22:59;97546.69;;;-2.69;89.84
42601;BME280;28229;48.856;9.088;2023-12-04T10:25:29;97539.50;;;-2.65;90.39
42601;BME280;28229;48.856;9.088;2023-12-04T10:28:11;97556.56;;;-2.64;90.60
42601;BME280;28229;48.856;9.088;2023-12-04T10:30:38;97562.09;;;-2.59;90.08
42601;BME280;28229;48.856;9.088;2023-12-04T10:33:05;97555.16;;;-2.59;91.25
42601;BME280;28229;48.856;9.088;2023-12-04T10:35:33;97546.13;;;-2.35;94.58
42601;BME280;28229;48.856;9.088;2023-12-04T10:38:02;97547.19;;;-2.38;91.74
42601;BME280;28229;48.856;9.088;2023-12-04T10:40:30;97544.41;;;-2.26;92.03
42601;BME280;28229;48.856;9.088;2023-12-04T10:43:19;97544.72;;;-2.30;90.94
42601;BME280;28229;48.856;9.088;2023-12-04T10:45:47;97527.63;;;-1.95;93.58
42601;BME280;28229;48.856;9.088;2023-12-04T10:48:15;97526.41;;;-1.90;90.15
42601;BME280;28229;48.856;9.088;2023-12-04T10:50:43;97512.69;;;-1.91;89.22
42601;BME280;28229;48.856;9.088;2023-12-04T10:53:12;97515.25;;;-1.73;89.57
42601;BME280;28229;48.856;9.088;2023-12-04T10:55:39;97501.00;;;-1.59;89.70
42601;BME280;28229;48.856;9.088;2023-12-04T10:58:10;97506.72;;;-1.47;89.62
42601;BME280;28229;48.856;9.088;2023-12-04T11:00:48;97499.72;;;-1.37;89.38
42601;BME280;28229;48.856;9.088;2023-12-04T11:03:21;97481.22;;;-1.24;89.45
42601;BME280;28229;48.856;9.088;2023-12-04T11:05:55;97465.31;;;-1.11;89.33
42601;BME280;28229;48.856;9.088;2023-12-04T11:08:22;97461.84;;;-0.94;88.86
42601;BME280;28229;48.856;9.088;2023-12-04T11:11:04;97453.78;;;-0.91;88.14
42601;BME280;28229;48.856;9.088;2023-12-04T11:13:46;97461.34;;;-0.89;87.37
42601;BME280;28229;48.856;9.088;2023-12-04T11:16:30;97454.75;;;-0.92;86.25
42601;BME280;28229;48.856;9.088;2023-12-04T11:21:49;97451.47;;;-1.02;86.03
42601;BME280;28229;48.856;9.088;2023-12-04T11:24:17;97455.53;;;-1.00;86.44
42601;BME280;28229;48.856;9.088;2023-12-04T11:26:44;97447.59;;;-0.98;85.81
42601;BME280;28229;48.856;9.088;2023-12-04T11:29:12;97458.25;;;-1.01;87.60
42601;BME280;28229;48.856;9.088;2023-12-04T11:31:38;97448.94;;;-0.94;87.62
42601;BME280;28229;48.856;9.088;2023-12-04T11:34:05;97454.78;;;-0.84;87.59
42601;BME280;28229;48.856;9.088;2023-12-04T11:36:33;97449.63;;;-0.84;87.27
42601;BME280;28229;48.856;9.088;2023-12-04T11:39:00;97448.00;;;-0.85;87.52
42601;BME280;28229;48.856;9.088;2023-12-04T11:41:26;97444.44;;;-0.84;87.14
42601;BME280;28229;48.856;9.088;2023-12-04T11:43:55;97439.94;;;-0.73;87.54
42601;BME280;28229;48.856;9.088;2023-12-04T11:46:23;97422.34;;;-0.78;87.56
42601;BME280;28229;48.856;9.088;2023-12-04T11:48:50;97424.44;;;-0.73;87.81
42601;BME280;28229;48.856;9.088;2023-12-04T11:54:08;97392.50;;;-0.72;87.31
42601;BME280;28229;48.856;9.088;2023-12-04T11:56:34;97383.13;;;-0.73;88.20
42601;BME280;28229;48.856;9.088;2023-12-04T11:59:07;97375.22;;;-0.72;88.44
42601;BME280;28229;48.856;9.088;2023-12-04T12:01:36;97376.69;;;-0.69;88.23
42601;BME280;28229;48.856;9.088;2023-12-04T12:04:06;97378.28;;;-0.68;87.76
42601;BME280;28229;48.856;9.088;2023-12-04T12:06:32;97377.47;;;-0.69;87.58
42601;BME280;28229;48.856;9.088;2023-12-04T12:08:59;97370.69;;;-0.70;87.92
42601;BME280;28229;48.856;9.088;2023-12-04T12:11:25;97363.59;;;-0.76;88.14
42601;BME280;28229;48.856;9.088;2023-12-04T12:13:55;97360.66;;;-0.81;88.17
42601;BME280;28229;48.856;9.088;2023-12-04T12:16:21;97355.97;;;-0.86;86.94
42601;BME280;28229;48.856;9.088;2023-12-04T12:18:47;97357.25;;;-0.90;86.80
42601;BME280;28229;48.856;9.088;2023-12-04T12:21:14;97347.72;;;-0.89;86.76
42601;BME280;28229;48.856;9.088;2023-12-04T12:23:40;97340.81;;;-0.89;87.18
42601;BME280;28229;48.856;9.088;2023-12-04T12:26:07;97339.22;;;-0.82;87.10
42601;BME280;28229;48.856;9.088;2023-12-04T12:28:37;97334.38;;;-0.77;87.79
42601;BME280;28229;48.856;9.088;2023-12-04T12:31:03;97323.38;;;-0.79;87.42
42601;BME280;28229;48.856;9.088;2023-12-04T12:33:30;97322.59;;;-0.87;87.93
42601;BME280;28229;48.856;9.088;2023-12-04T12:35:57;97306.59;;;-0.91;88.49
42601;BME280;28229;48.856;9.088;2023-12-04T12:38:24;97309.34;;;-0.84;89.32
42601;BME280;28229;48.856;9.088;2023-12-04T12:40:51;97303.06;;;-0.82;88.84
42601;BME280;28229;48.856;9.088;2023-12-04T12:43:20;97306.91;;;-0.78;89.01
42601;BME280;28229;48.856;9.088;2023-12-04T12:45:46;97311.13;;;-0.77;88.72
42601;BME280;28229;48.856;9.088;2023-12-04T12:48:17;97309.50;;;-0.78;88.85
42601;BME280;28229;48.856;9.088;2023-12-04T12:50:46;97304.03;;;-0.74;88.23
42601;BME280;28229;48.856;9.088;2023-12-04T12:53:14;97286.25;;;-0.86;87.81
42601;BME280;28229;48.856;9.088;2023-12-04T12:55:43;97297.25;;;-0.84;88.23
42601;BME280;28229;48.856;9.088;2023-12-04T12:58:10;97293.22;;;-0.78;88.52
42601;BME280;28229;48.856;9.088;2023-12-04T13:00:36;97286.09;;;-0.92;88.71
42601;BME280;28229;48.856;9.088;2023-12-04T13:03:05;97289.81;;;-0.87;88.62
42601;BME280;28229;48.856;9.088;2023-12-04T13:05:32;97293.69;;;-0.91;88.75